地図

経路データ

SID SEASON NUMBER BASIN SUBBASIN NAME ISO_TIME NATURE LAT LON WMO_WIND WMO_PRES WMO_AGENCY TRACK_TYPE DIST2LAND LANDFALL IFLAG USA_AGENCY USA_ATCF_ID USA_LAT USA_LON USA_RECORD USA_STATUS USA_WIND USA_PRES USA_SSHS USA_R34_NE USA_R34_SE USA_R34_SW USA_R34_NW USA_R50_NE USA_R50_SE USA_R50_SW USA_R50_NW USA_R64_NE USA_R64_SE USA_R64_SW USA_R64_NW USA_POCI USA_ROCI USA_RMW USA_EYE TOKYO_LAT TOKYO_LON TOKYO_GRADE TOKYO_WIND TOKYO_PRES TOKYO_R50_DIR TOKYO_R50_LONG TOKYO_R50_SHORT TOKYO_R30_DIR TOKYO_R30_LONG TOKYO_R30_SHORT TOKYO_LAND CMA_LAT CMA_LON CMA_CAT CMA_WIND CMA_PRES HKO_LAT HKO_LON HKO_CAT HKO_WIND HKO_PRES NEWDELHI_LAT NEWDELHI_LON NEWDELHI_GRADE NEWDELHI_WIND NEWDELHI_PRES NEWDELHI_CI NEWDELHI_DP NEWDELHI_POCI REUNION_LAT REUNION_LON REUNION_TYPE REUNION_WIND REUNION_PRES REUNION_TNUM REUNION_CI REUNION_RMW REUNION_R34_NE REUNION_R34_SE REUNION_R34_SW REUNION_R34_NW REUNION_R50_NE REUNION_R50_SE REUNION_R50_SW REUNION_R50_NW REUNION_R64_NE REUNION_R64_SE REUNION_R64_SW REUNION_R64_NW BOM_LAT BOM_LON BOM_TYPE BOM_WIND BOM_PRES BOM_TNUM BOM_CI BOM_RMW BOM_R34_NE BOM_R34_SE BOM_R34_SW BOM_R34_NW BOM_R50_NE BOM_R50_SE BOM_R50_SW BOM_R50_NW BOM_R64_NE BOM_R64_SE BOM_R64_SW BOM_R64_NW BOM_ROCI BOM_POCI BOM_EYE BOM_POS_METHOD BOM_PRES_METHOD NADI_LAT NADI_LON NADI_CAT NADI_WIND NADI_PRES WELLINGTON_LAT WELLINGTON_LON WELLINGTON_WIND WELLINGTON_PRES DS824_LAT DS824_LON DS824_STAGE DS824_WIND DS824_PRES TD9636_LAT TD9636_LON TD9636_STAGE TD9636_WIND TD9636_PRES TD9635_LAT TD9635_LON TD9635_WIND TD9635_PRES TD9635_ROCI NEUMANN_LAT NEUMANN_LON NEUMANN_CLASS NEUMANN_WIND NEUMANN_PRES MLC_LAT MLC_LON MLC_CLASS MLC_WIND MLC_PRES USA_GUST BOM_GUST BOM_GUST_PER REUNION_GUST REUNION_GUST_PER USA_SEAHGT USA_SEARAD_NE USA_SEARAD_SE USA_SEARAD_SW USA_SEARAD_NW STORM_SPEED STORM_DIR
2020319S07080 2021 43 SI MM ALICIA 2020-11-14 00:00:00 NR -7.40000 79.7000 PROVISIONAL 1493 1493 O_____________ tcvitals SI012020 -7.40000 79.7000 45 997 0 80 65 85 110 1006 150 40 17 247
2020319S07080 2021 43 SI MM ALICIA 2020-11-14 03:00:00 NR -7.74293 78.9001 PROVISIONAL 1535 1535 P_____________ SI012020 -7.74293 78.9001 45 996 0 82 67 77 107 1006 155 37 17 242
2020319S07080 2021 43 SI MM ALICIA 2020-11-14 06:00:00 NR -8.20000 78.2000 PROVISIONAL 1602 1602 O_____________ tcvitals SI012020 -8.20000 78.2000 45 996 0 85 70 70 105 1006 160 35 16 228
2020319S07080 2021 43 SI MM ALICIA 2020-11-14 09:00:00 NR -8.83477 77.6624 PROVISIONAL 1678 1678 P_____________ SI012020 -8.83477 77.6624 48 995 0 77 70 62 72 1005 140 30 16 217
2020319S07080 2021 43 SI MM ALICIA 2020-11-14 12:00:00 NR -9.50000 77.2000 PROVISIONAL 1766 1766 O_____________ tcvitals SI012020 -9.50000 77.2000 51 994 0 70 70 55 40 1005 120 25 15 218
2020319S07080 2021 43 SI MM ALICIA 2020-11-14 15:00:00 NR -9.99972 76.7369 PROVISIONAL 1833 1833 P_____________ SI012020 -9.99972 76.7369 52 992 0 80 90 65 60 1005 120 25 14 225
2020319S07080 2021 43 SI MM ALICIA 2020-11-14 18:00:00 NR -10.5000 76.2000 PROVISIONAL 1901 1901 O_____________ tcvitals SI012020 -10.5000 76.2000 54 991 0 90 110 75 80 1005 120 25 17 229
2020319S07080 2021 43 SI MM ALICIA 2020-11-14 21:00:00 NR -11.1204 75.4428 PROVISIONAL 1989 1989 P_____________ SI012020 -11.1204 75.4428 54 991 0 90 110 75 80 1005 145 27 20 229
2020319S07080 2021 43 SI MM ALICIA 2020-11-15 00:00:00 NR -11.8000 74.7000 PROVISIONAL 2039 1953 O_____________ tcvitals SI012020 -11.8000 74.7000 54 991 0 90 110 75 80 1005 170 30 19 221
2020319S07080 2021 43 SI MM ALICIA 2020-11-15 03:00:00 NR -12.5672 74.1750 PROVISIONAL 1948 1878 P_____________ SI012020 -12.5672 74.1750 57 989 0 95 115 82 77 1004 170 25 17 212
2020319S07080 2021 43 SI MM ALICIA 2020-11-15 06:00:00 NR -13.2000 73.8000 PROVISIONAL 1878 1834 O_____________ tcvitals SI012020 -13.2000 73.8000 60 988 0 100 120 90 75 1004 170 20 11 217
2020319S07080 2021 43 SI MM ALICIA 2020-11-15 09:00:00 NR -13.4599 73.4896 PROVISIONAL 1834 1810 P_____________ SI012020 -13.4599 73.4896 60 987 0 105 125 92 72 1004 165 20 6 231
2020319S07080 2021 43 SI MM ALICIA 2020-11-15 12:00:00 NR -13.6000 73.3000 PROVISIONAL 1810 1790 O_____________ tcvitals SI012020 -13.6000 73.3000 60 986 0 110 130 95 70 1005 160 20 4 213
2020319S07080 2021 43 SI MM ALICIA 2020-11-15 15:00:00 NR -13.8249 73.2422 PROVISIONAL 1790 1771 P_____________ SI012020 -13.8249 73.2422 62 986 0 107 130 92 67 1006 170 20 6 189
2020319S07080 2021 43 SI MM ALICIA 2020-11-15 18:00:00 NR -14.2000 73.2000 PROVISIONAL 1771 1719 O_____________ tcvitals SI012020 -14.2000 73.2000 64 986 1 105 130 90 65 1007 180 20 11 191
2020319S07080 2021 43 SI MM ALICIA 2020-11-15 21:00:00 NR -14.8925 73.0303 PROVISIONAL 1719 1670 P_____________ SI012020 -14.8925 73.0303 64 985 1 105 128 92 62 1006 180 20 15 195
2020319S07080 2021 43 SI MM ALICIA 2020-11-16 00:00:00 NR -15.6000 72.8000 PROVISIONAL 1670 1635 O_____________ tcvitals SI012020 -15.6000 72.8000 64 984 1 105 126 95 60 1005 180 20 12 202
2020319S07080 2021 43 SI MM ALICIA 2020-11-16 03:00:00 NR -16.0250 72.5574 PROVISIONAL 1635 1594 P_____________ SI012020 -16.0250 72.5574 64 983 1 87 93 95 55 1005 157 20 9 215
2020319S07080 2021 43 SI MM ALICIA 2020-11-16 06:00:00 NR -16.3000 72.3000 PROVISIONAL 1594 1556 O_____________ tcvitals SI012020 -16.3000 72.3000 64 983 1 70 60 95 50 1005 135 20 8 224
2020319S07080 2021 43 SI MM ALICIA 2020-11-16 09:00:00 NR -16.5601 72.0125 PROVISIONAL 1553 1529 P_____________ SI012020 -16.5601 72.0125 59 984 0 62 52 85 47 1005 135 20 6 230
2020319S07080 2021 43 SI MM ALICIA 2020-11-16 12:00:00 NR -16.7000 71.8000 PROVISIONAL 1529 1529 O_____________ tcvitals SI012020 -16.7000 71.8000 54 986 0 55 45 75 45 1005 135 20 3 242
2020319S07080 2021 43 SI MM ALICIA 2020-11-16 15:00:00 NR -16.6800 71.7699 PROVISIONAL 1529 1529 P_____________ SI012020 -16.6800 71.7699 49 991 0 47 50 65 50 1005 147 22 1 0
2020319S07080 2021 43 SI MM ALICIA 2020-11-16 18:00:00 NR -16.6000 71.8000 PROVISIONAL 1533 1533 O_____________ tcvitals SI012020 -16.6000 71.8000 45 996 0 40 55 55 55 1005 160 25 1 352
2020319S07080 2021 43 SI MM ALICIA 2020-11-16 21:00:00 NR -16.5625 71.7575 PROVISIONAL 1533 1522 P_____________ SI012020 -16.5625 71.7575 45 995 0 40 55 55 55 1004 160 25 1 270
2020319S07080 2021 43 SI MM ALICIA 2020-11-17 00:00:00 NR -16.6000 71.7000 PROVISIONAL 1522 1516 O_____________ tcvitals SI012020 -16.6000 71.7000 45 994 0 40 55 55 55 1004 160 25 2 204
2020319S07080 2021 43 SI MM ALICIA 2020-11-17 03:00:00 NR -16.7850 71.6575 PROVISIONAL 1516 1499 P_____________ SI012020 -16.7850 71.6575 40 996 0 40 55 52 55 1004 160 27 4 193
2020319S07080 2021 43 SI MM ALICIA 2020-11-17 06:00:00 NR -17.0000 71.6000 PROVISIONAL 1499 1496 O_____________ tcvitals SI012020 -17.0000 71.6000 35 999 0 40 55 50 55 1004 160 30 3 199
2020319S07080 2021 43 SI MM ALICIA 2020-11-17 09:00:00 NR -17.0624 71.5521 PROVISIONAL 1496 1472 P_____________ SI012020 -17.0624 71.5521 35 999 0 42 50 52 55 1004 160 30 3 224
2020319S07080 2021 43 SI MM ALICIA 2020-11-17 12:00:00 NR -17.2000 71.4000 PROVISIONAL 1472 1420 O_____________ tcvitals SI012020 -17.2000 71.4000 35 999 0 45 45 55 55 1004 160 30 8 221
2020319S07080 2021 43 SI MM ALICIA 2020-11-17 15:00:00 NR -17.6654 70.9934 PROVISIONAL 1417 1366 P_____________ SI012020 -17.6654 70.9934 32 999 -1 1004 143 30 12 220
2020319S07080 2021 43 SI MM ALICIA 2020-11-17 18:00:00 NR -18.1000 70.6000 PROVISIONAL 1366 1353 O_____________ tcvitals SI012020 -18.1000 70.6000 29 999 -1 1004 126 30 7 223
2020319S07080 2021 43 SI MM ALICIA 2020-11-17 21:00:00 NR -18.1474 70.5154 PROVISIONAL 1355 1355 P_____________ SI012020 -18.1474 70.5154 29 999 -1 1004 145 35 1 270
2020319S07080 2021 43 SI MM ALICIA 2020-11-18 00:00:00 NR -18.1000 70.5000 PROVISIONAL 1355 1343 O_____________ tcvitals SI012020 -18.1000 70.5000 29 1000 -1 1005 165 40 1 255
2020319S07080 2021 43 SI MM ALICIA 2020-11-18 03:00:00 NR -18.1840 70.3704 PROVISIONAL 1343 1317 P_____________ SI012020 -18.1840 70.3704 -1 4 231
2020319S07080 2021 43 SI MM ALICIA 2020-11-18 06:00:00 NR -18.3660 70.1566 PROVISIONAL 1317 O_____________ tcvitals SI012020 -18.3660 70.1566 -1 5 228

IBTrACS Databaseについて

本データベースは、米国NOAAが公開する1842年以降の世界の熱帯低気圧のベストトラックデータアーカイブInternational Best Track Archive for Climate Stewardship (IBTrACS)を、ウェブで閲覧しやすい形式に変換したものです。

最終更新日:2021-10-19